Time;durP1;ratioP1;P1;durP2;ratioP2;P2;SDS_P1;SDS_P2;PMS_P1;PMS_P2;Temp;Humidity;BMP_temperature;BMP_pressure;BME280_temperature;BME280_humidity;BME280_pressure;Samples;Min_cycle;Max_cycle;Signal;HPM_P1;HPM_P2
2022/04/11 00:01:04;;;;;;;3.25;2.00;;;5.30;99.90;;;;;;5058268;28;20233;-80
2022/04/11 00:03:31;;;;;;;7.82;2.00;;;5.40;1.00;;;;;;5058500;28;20333;-80
2022/04/11 00:05:58;;;;;;;4.40;1.90;;;5.30;1.00;;;;;;5061530;28;20223;-78
2022/04/11 00:08:26;;;;;;;4.95;2.03;;;5.20;1.00;;;;;;5061967;28;20252;-80
2022/04/11 00:10:52;;;;;;;2.85;1.92;;;5.30;1.00;;;;;;5059837;28;20227;-79
2022/04/11 00:13:19;;;;;;;3.72;2.42;;;5.30;1.00;;;;;;5058007;28;20250;-79
2022/04/11 00:15:45;;;;;;;4.00;1.90;;;5.20;12.50;;;;;;5058792;28;20199;-79
2022/04/11 00:18:12;;;;;;;4.00;2.25;;;5.20;99.90;;;;;;5058471;28;20210;-80
2022/04/11 00:20:39;;;;;;;6.93;2.60;;;5.20;99.90;;;;;;5060814;28;20203;-77
2022/04/11 00:23:06;;;;;;;5.10;1.98;;;5.20;43.80;;;;;;5062891;28;20729;-80
2022/04/11 00:25:34;;;;;;;5.85;2.22;;;5.20;99.90;;;;;;5057524;28;20219;-78
2022/04/11 00:28:01;;;;;;;3.35;2.15;;;5.10;99.90;;;;;;5061144;28;20199;-80
2022/04/11 00:30:27;;;;;;;2.88;2.65;;;5.10;99.90;;;;;;5061533;28;20207;-81
2022/04/11 00:32:54;;;;;;;2.20;2.00;;;5.10;99.90;;;;;;5059445;28;20231;-80
2022/04/11 00:35:21;;;;;;;4.75;2.47;;;5.00;99.90;;;;;;5061564;28;20238;-81
2022/04/11 00:37:47;;;;;;;2.20;2.00;;;5.00;99.90;;;;;;5063923;28;20233;-79
2022/04/11 00:40:14;;;;;;;5.90;4.45;;;5.00;99.90;;;;;;5066761;28;20233;-80
2022/04/11 00:42:42;;;;;;;2.10;2.00;;;5.00;1.00;;;;;;5065486;28;20234;-77
2022/04/11 00:45:09;;;;;;;4.88;1.73;;;4.90;1.00;;;;;;5061569;28;20616;-80
2022/04/11 00:47:36;;;;;;;4.70;2.50;;;4.90;1.00;;;;;;5059233;28;20230;-80
2022/04/11 00:50:05;;;;;;;3.00;2.03;;;4.80;1.00;;;;;;5056003;28;20235;-78
2022/04/11 00:52:34;;;;;;;4.70;2.20;;;4.80;1.00;;;;;;5059468;28;20264;-80
2022/04/11 00:55:01;;;;;;;3.83;1.85;;;4.70;1.00;;;;;;5061166;28;20214;-78
2022/04/11 00:57:28;;;;;;;3.28;2.30;;;4.60;1.00;;;;;;5064620;28;20239;-78
2022/04/11 00:59:59;;;;;;;4.63;2.20;;;4.60;1.00;;;;;;5067885;28;20203;-77
2022/04/11 01:02:26;;;;;;;5.57;2.17;;;4.60;1.00;;;;;;5067838;28;20685;-79
2022/04/11 01:04:52;;;;;;;5.25;1.70;;;4.50;1.00;;;;;;5064301;28;20210;-79
2022/04/11 01:07:20;;;;;;;5.43;2.10;;;4.50;1.00;;;;;;5059125;28;20219;-80
2022/04/11 01:09:47;;;;;;;2.60;1.95;;;4.50;1.00;;;;;;5061097;28;20203;-79
2022/04/11 01:12:15;;;;;;;3.38;1.95;;;4.20;1.00;;;;;;5060370;28;20270;-78
2022/04/11 01:14:41;;;;;;;10.73;2.88;;;4.50;1.00;;;;;;5062727;28;20207;-79
2022/04/11 01:17:10;;;;;;;3.25;2.03;;;4.50;1.00;;;;;;5061975;28;20233;-79
2022/04/11 01:19:36;;;;;;;4.68;2.05;;;4.40;1.00;;;;;;5059733;28;20257;-81
2022/04/11 01:22:05;;;;;;;6.00;2.17;;;4.40;1.00;;;;;;5057786;28;20207;-81
2022/04/11 01:24:34;;;;;;;3.67;2.22;;;4.40;1.00;;;;;;5056282;28;20223;-79
2022/04/11 01:27:00;;;;;;;3.03;2.08;;;4.30;1.00;;;;;;5056495;28;20229;-78
2022/04/11 01:29:28;;;;;;;4.22;2.33;;;4.30;1.00;;;;;;5056688;28;20237;-80
2022/04/11 01:31:55;;;;;;;6.05;2.10;;;4.20;1.00;;;;;;5055626;28;20207;-79
2022/04/11 01:34:21;;;;;;;2.85;2.05;;;4.30;17.80;;;;;;5056210;28;20639;-80
2022/04/11 01:36:48;;;;;;;4.43;2.22;;;4.20;1.00;;;;;;5067086;28;20195;-79
2022/04/11 01:39:16;;;;;;;4.60;2.60;;;4.20;1.00;;;;;;5068381;28;20237;-80
2022/04/11 01:41:43;;;;;;;2.33;2.13;;;4.20;1.30;;;;;;5069820;28;20233;-79
2022/04/11 01:44:10;;;;;;;5.82;2.70;;;4.20;6.40;;;;;;5072629;28;20226;-77
2022/04/11 01:46:36;;;;;;;7.10;2.20;;;4.20;14.10;;;;;;5072693;28;20241;-77
2022/04/11 01:49:03;;;;;;;7.80;1.90;;;4.30;66.30;;;;;;5072598;28;20203;-77
2022/04/11 01:51:29;;;;;;;4.75;2.05;;;4.10;27.50;;;;;;5071669;28;20207;-78
2022/04/11 01:53:56;;;;;;;3.85;2.00;;;4.00;34.90;;;;;;5069258;28;20730;-79
2022/04/11 01:56:24;;;;;;;4.15;2.20;;;4.10;30.20;;;;;;5065752;28;20242;-78
2022/04/11 01:58:50;;;;;;;3.10;2.35;;;4.00;36.90;;;;;;5061193;28;20252;-79
2022/04/11 02:01:18;;;;;;;3.17;2.40;;;4.00;42.60;;;;;;5062581;28;20211;-80
2022/04/11 02:03:45;;;;;;;3.60;2.20;;;4.00;40.40;;;;;;5066759;28;20237;-79
2022/04/11 02:06:11;;;;;;;6.40;2.38;;;4.00;44.80;;;;;;5067715;28;20287;-79
2022/04/11 02:08:40;;;;;;;4.30;2.67;;;4.00;52.80;;;;;;5069607;28;20253;-79
2022/04/11 02:11:08;;;;;;;2.28;1.90;;;3.90;44.40;;;;;;5071570;28;20226;-78
2022/04/11 02:13:36;;;;;;;8.43;2.25;;;3.90;39.20;;;;;;5070282;28;20290;-79
2022/04/11 02:16:02;;;;;;;4.30;2.35;;;3.90;59.70;;;;;;5071713;28;20198;-78
2022/04/11 02:18:29;;;;;;;2.95;2.15;;;3.90;81.60;;;;;;5071840;28;20199;-77
2022/04/11 02:20:56;;;;;;;4.15;2.85;;;3.90;56.50;;;;;;5071729;28;20249;-80
2022/04/11 02:23:22;;;;;;;9.32;3.08;;;3.90;30.80;;;;;;5070655;28;20272;-78
2022/04/11 02:25:49;;;;;;;3.80;2.00;;;3.80;43.50;;;;;;5064728;28;20200;-80
2022/04/11 02:28:15;;;;;;;3.97;2.42;;;3.80;52.00;;;;;;5060447;28;20642;-80
2022/04/11 02:30:43;;;;;;;4.30;2.38;;;3.90;56.70;;;;;;5059595;28;20241;-80
2022/04/11 02:33:10;;;;;;;5.97;2.42;;;3.80;72.00;;;;;;5059157;28;20273;-81
2022/04/11 02:35:37;;;;;;;5.32;2.00;;;3.80;94.80;;;;;;5058808;28;20625;-79
2022/04/11 02:38:03;;;;;;;12.60;2.35;;;3.70;89.70;;;;;;5058866;28;20199;-80
2022/04/11 02:40:30;;;;;;;5.03;1.98;;;3.70;99.90;;;;;;5058651;28;20212;-79
2022/04/11 02:42:56;;;;;;;5.07;2.60;;;3.70;99.90;;;;;;5058979;28;20265;-80
2022/04/11 02:45:23;;;;;;;2.03;1.80;;;3.70;99.90;;;;;;5058721;28;20199;-80
2022/04/11 02:47:51;;;;;;;1.88;1.77;;;3.60;99.90;;;;;;5057589;28;20233;-79
2022/04/11 02:50:18;;;;;;;5.50;2.75;;;3.70;99.90;;;;;;5059722;28;20225;-78
2022/04/11 02:52:44;;;;;;;5.50;3.00;;;3.70;99.90;;;;;;5058658;28;20717;-80
2022/04/11 02:55:11;;;;;;;4.60;2.58;;;3.70;99.90;;;;;;5058419;28;20198;-78
2022/04/11 02:57:38;;;;;;;5.20;3.10;;;3.60;99.90;;;;;;5062838;28;20210;-79
2022/04/11 03:00:07;;;;;;;3.80;1.95;;;3.70;99.90;;;;;;5063575;28;20211;-77
2022/04/11 03:02:34;;;;;;;1.98;1.85;;;3.70;99.90;;;;;;5066794;28;20219;-77
2022/04/11 03:05:02;;;;;;;8.32;2.53;;;3.70;99.90;;;;;;5067022;28;20207;-79
2022/04/11 03:07:28;;;;;;;6.22;2.65;;;3.70;99.90;;;;;;5059616;28;20226;-79
2022/04/11 03:09:56;;;;;;;8.30;2.60;;;3.70;99.90;;;;;;5058910;28;20210;-78
2022/04/11 03:12:22;;;;;;;3.00;2.25;;;3.50;99.90;;;;;;5061574;28;20209;-79
2022/04/11 03:14:49;;;;;;;3.65;2.63;;;3.70;99.90;;;;;;5065676;28;20203;-79
2022/04/11 03:17:16;;;;;;;7.13;2.60;;;3.60;99.90;;;;;;5060325;28;20199;-79
2022/04/11 03:19:44;;;;;;;4.95;2.53;;;3.70;99.90;;;;;;5058199;28;20645;-79
2022/04/11 03:22:12;;;;;;;2.53;2.20;;;3.60;99.90;;;;;;5058211;28;20203;-79
2022/04/11 03:24:39;;;;;;;8.57;2.70;;;3.50;99.90;;;;;;5057903;28;20276;-79
2022/04/11 03:27:06;;;;;;;4.65;3.03;;;3.60;99.90;;;;;;5058207;28;20633;-80
2022/04/11 03:29:33;;;;;;;3.20;2.30;;;3.60;99.90;;;;;;5058550;28;20199;-79
2022/04/11 03:31:59;;;;;;;3.47;2.65;;;3.60;99.90;;;;;;5058060;28;20202;-81
2022/04/11 03:34:26;;;;;;;8.88;3.25;;;3.60;99.90;;;;;;5058104;28;20254;-80
2022/04/11 03:36:53;;;;;;;4.95;2.88;;;3.60;99.90;;;;;;5058503;28;20235;-80
2022/04/11 03:39:20;;;;;;;11.40;2.85;;;3.60;99.90;;;;;;5067816;28;20203;-77
2022/04/11 03:41:47;;;;;;;3.83;3.10;;;3.60;99.90;;;;;;5074987;28;20207;-79
2022/04/11 03:44:14;;;;;;;5.70;2.40;;;3.50;99.90;;;;;;5071839;28;20227;-78
2022/04/11 03:46:40;;;;;;;7.05;3.45;;;3.40;99.90;;;;;;5065815;28;20289;-80
2022/04/11 03:49:07;;;;;;;6.10;2.72;;;3.50;99.90;;;;;;5058921;28;20234;-79
2022/04/11 03:51:34;;;;;;;14.20;3.67;;;3.50;99.90;;;;;;5058373;28;20242;-79
2022/04/11 03:54:00;;;;;;;4.78;3.40;;;3.40;99.90;;;;;;5059668;28;20234;-80
2022/04/11 03:56:28;;;;;;;6.47;3.25;;;3.40;99.90;;;;;;5058588;28;20211;-79
2022/04/11 03:58:55;;;;;;;3.70;3.40;;;3.40;99.90;;;;;;5058180;28;20206;-79
2022/04/11 04:01:21;;;;;;;4.75;3.40;;;3.30;99.90;;;;;;5058797;28;20203;-79
2022/04/11 04:03:48;;;;;;;3.03;2.78;;;3.30;99.90;;;;;;5059423;28;20573;-80
2022/04/11 04:06:15;;;;;;;5.45;3.20;;;3.40;99.90;;;;;;5059006;28;20238;-79
2022/04/11 04:08:41;;;;;;;3.53;3.05;;;3.40;99.90;;;;;;5069988;28;20213;-79
2022/04/11 04:11:09;;;;;;;9.30;3.17;;;3.40;99.90;;;;;;5073545;28;20206;-78
2022/04/11 04:13:37;;;;;;;3.85;2.85;;;3.50;99.90;;;;;;5073691;28;20218;-78
2022/04/11 04:16:04;;;;;;;4.75;3.25;;;3.50;99.90;;;;;;5070868;28;20638;-80
2022/04/11 04:18:31;;;;;;;3.80;2.60;;;3.40;99.90;;;;;;5060638;28;20654;-79
2022/04/11 04:21:00;;;;;;;2.95;2.70;;;3.40;99.90;;;;;;5060756;28;20231;-79
2022/04/11 04:23:26;;;;;;;3.42;3.13;;;3.30;99.90;;;;;;5058033;28;20230;-79
2022/04/11 04:25:53;;;;;;;5.35;3.78;;;3.30;99.90;;;;;;5058720;28;20207;-79
2022/04/11 04:28:21;;;;;;;7.40;4.68;;;3.20;99.90;;;;;;5057424;28;20223;-80
2022/04/11 04:30:49;;;;;;;6.90;3.42;;;3.20;99.90;;;;;;5057932;28;20203;-80
2022/04/11 04:33:15;;;;;;;10.10;3.83;;;3.10;99.90;;;;;;5058304;28;20223;-80
2022/04/11 04:35:42;;;;;;;6.05;3.80;;;3.20;99.90;;;;;;5058163;28;20200;-81
2022/04/11 04:38:09;;;;;;;6.88;3.92;;;3.10;99.90;;;;;;5058171;28;20210;-80
2022/04/11 04:40:35;;;;;;;10.48;3.67;;;3.30;99.90;;;;;;5056351;28;20435;-78
2022/04/11 04:43:04;;;;;;;8.25;4.00;;;3.20;99.90;;;;;;5058128;28;20227;-80
2022/04/11 04:45:31;;;;;;;7.88;3.72;;;3.20;99.90;;;;;;5059008;28;20211;-79
2022/04/11 04:47:58;;;;;;;6.60;3.53;;;3.20;99.90;;;;;;5062531;28;20215;-82
2022/04/11 04:50:25;;;;;;;7.40;4.18;;;3.20;99.90;;;;;;5066129;28;20211;-79
2022/04/11 04:52:52;;;;;;;7.47;4.10;;;3.10;99.90;;;;;;5065879;28;20234;-79
2022/04/11 04:55:18;;;;;;;6.68;3.55;;;3.10;99.90;;;;;;5067046;28;20561;-80
2022/04/11 04:57:45;;;;;;;6.05;3.40;;;3.00;99.90;;;;;;5068897;28;20209;-78
2022/04/11 05:00:13;;;;;;;5.97;3.97;;;3.10;99.90;;;;;;5072215;28;20275;-77
2022/04/11 05:02:40;;;;;;;5.82;4.60;;;3.20;99.90;;;;;;5075044;28;20222;-79
2022/04/11 05:05:10;;;;;;;5.47;3.72;;;3.20;99.90;;;;;;5074848;28;20237;-78
2022/04/11 05:07:37;;;;;;;11.65;3.25;;;3.20;99.90;;;;;;5072964;28;20238;-78
2022/04/11 05:10:05;;;;;;;5.95;4.30;;;3.20;99.90;;;;;;5071112;28;20211;-77
2022/04/11 05:12:38;;;;;;;10.50;4.05;;;3.20;99.90;;;;;;5072944;28;20231;-78
2022/04/11 05:15:06;;;;;;;9.90;5.63;;;3.20;99.90;;;;;;5071498;28;20245;-78
2022/04/11 05:17:33;;;;;;;10.25;5.05;;;3.30;99.90;;;;;;5070849;28;20199;-78
2022/04/11 05:19:59;;;;;;;7.40;4.53;;;3.40;99.90;;;;;;5072106;28;20264;-79
2022/04/11 05:22:27;;;;;;;7.95;4.72;;;3.80;99.90;;;;;;5070564;28;20207;-79
2022/04/11 05:24:54;;;;;;;6.72;3.85;;;3.60;99.90;;;;;;5068669;28;20253;-79
2022/04/11 05:27:21;;;;;;;13.65;4.35;;;3.50;99.90;;;;;;5070133;28;20222;-80
2022/04/11 05:29:47;;;;;;;7.60;4.70;;;3.50;99.90;;;;;;5071313;28;20203;-82
2022/04/11 05:32:14;;;;;;;11.43;5.65;;;3.50;99.90;;;;;;5072215;28;20203;-81
2022/04/11 05:46:52;;;;;;;5.30;3.95;;;3.70;99.90;;;;;;5058649;28;20207;-80
2022/04/11 05:49:27;;;;;;;8.00;3.63;;;3.70;99.90;;;;;;5061077;28;20206;-79
2022/04/11 05:52:11;;;;;;;5.72;4.20;;;4.10;99.90;;;;;;5063863;28;20230;-78
2022/04/11 05:54:39;;;;;;;7.68;3.95;;;;;;;;;;5043551;28;20242;-79
2022/04/11 05:57:12;;;;;;;9.15;4.00;;;3.90;99.90;;;;;;5041790;28;20253;-80
2022/04/11 05:59:39;;;;;;;9.73;4.75;;;3.90;99.90;;;;;;5072547;22;20226;-82
2022/04/11 06:02:09;;;;;;;6.28;4.30;;;3.90;99.90;;;;;;5064857;28;20191;-82
2022/04/11 06:04:36;;;;;;;11.90;4.93;;;4.00;80.30;;;;;;5065027;28;20230;-82
2022/04/11 06:07:03;;;;;;;9.48;4.30;;;4.00;68.20;;;;;;5063471;28;20211;-82
2022/04/11 06:09:30;;;;;;;7.47;4.00;;;4.20;43.10;;;;;;5062531;28;20249;-82
2022/04/11 06:11:57;;;;;;;6.70;3.78;;;4.30;16.50;;;;;;5063600;28;20209;-83
2022/04/11 06:14:23;;;;;;;11.68;4.05;;;4.30;6.30;;;;;;5062465;28;20207;-83
2022/04/11 06:16:50;;;;;;;5.00;3.78;;;4.30;1.00;;;;;;5062074;28;20199;-83
2022/04/11 06:19:18;;;;;;;8.00;4.60;;;4.50;1.00;;;;;;5061693;28;20631;-82
2022/04/11 06:21:44;;;;;;;12.88;3.90;;;4.50;1.00;;;;;;5062888;28;20657;-82
2022/04/11 06:24:11;;;;;;;5.82;4.13;;;4.60;1.00;;;;;;5060836;28;20199;-82
2022/04/11 06:26:39;;;;;;;6.20;5.65;;;4.70;1.00;;;;;;5062185;28;20183;-82
2022/04/11 06:29:06;;;;;;;4.30;3.70;;;4.60;1.00;;;;;;5062746;28;20234;-83
2022/04/11 06:31:32;;;;;;;8.50;3.85;;;5.00;1.00;;;;;;5062040;28;20225;-82
2022/04/11 06:33:59;;;;;;;4.20;3.45;;;5.10;99.90;;;;;;5062168;28;20241;-82
2022/04/11 06:36:27;;;;;;;4.15;3.25;;;5.20;99.90;;;;;;5062232;28;20207;-82
2022/04/11 06:38:53;;;;;;;9.30;3.85;;;5.30;16.30;;;;;;5062927;28;20203;-82
2022/04/11 06:41:20;;;;;;;5.07;3.30;;;5.30;1.00;;;;;;5068925;28;20202;-83
2022/04/11 06:43:46;;;;;;;4.10;2.88;;;5.40;91.40;;;;;;5065152;28;20207;-82
2022/04/11 06:46:13;;;;;;;6.30;4.40;;;5.60;1.00;;;;;;5062846;28;20207;-82
2022/04/11 06:48:39;;;;;;;8.57;4.10;;;5.70;99.90;;;;;;5063152;28;20234;-83
2022/04/11 06:51:06;;;;;;;3.55;3.25;;;5.70;1.00;;;;;;5063075;28;20228;-82
2022/04/11 06:53:34;;;;;;;4.95;4.00;;;5.80;99.90;;;;;;5063123;28;20207;-82
2022/04/11 06:56:00;;;;;;;4.30;3.13;;;5.90;1.00;;;;;;5062190;28;20207;-82
2022/04/11 06:58:27;;;;;;;4.28;3.15;;;6.00;99.90;;;;;;5072999;28;20211;-82
2022/04/11 07:00:54;;;;;;;4.50;3.15;;;6.10;99.90;;;;;;5073232;28;20265;-82
2022/04/11 07:03:20;;;;;;;5.22;3.10;;;6.10;99.90;;;;;;5073632;28;20207;-82
2022/04/11 07:05:47;;;;;;;6.38;3.67;;;6.20;99.90;;;;;;5074242;28;20210;-82
2022/04/11 07:08:13;;;;;;;4.90;3.47;;;6.30;99.90;;;;;;5074001;28;20210;-82
2022/04/11 07:10:43;;;;;;;5.20;2.20;;;6.40;99.90;;;;;;5072882;28;20218;-82
2022/04/11 07:13:10;;;;;;;2.92;2.10;;;6.60;1.00;;;;;;5066383;28;20188;-82
2022/04/11 07:15:37;;;;;;;3.35;2.15;;;6.70;1.00;;;;;;5067768;28;20205;-82
2022/04/11 07:18:03;;;;;;;2.70;2.00;;;6.70;99.90;;;;;;5064955;28;20197;-82
2022/04/11 07:20:30;;;;;;;4.90;2.35;;;6.80;99.90;;;;;;5061180;28;20229;-82
2022/04/11 07:22:56;;;;;;;2.17;1.90;;;6.90;99.90;;;;;;5061924;28;20236;-82
2022/04/11 07:25:24;;;;;;;2.72;2.10;;;7.00;99.90;;;;;;5061731;28;20209;-82
2022/04/11 07:27:55;;;;;;;5.38;3.50;;;7.00;29.10;;;;;;5058981;28;20601;-82
2022/04/11 07:30:22;;;;;;;2.92;1.80;;;7.10;1.00;;;;;;5058181;28;20226;-83
2022/04/11 07:32:49;;;;;;;2.40;1.55;;;7.10;1.00;;;;;;5062880;28;20205;-82
2022/04/11 07:35:16;;;;;;;4.63;2.00;;;7.20;1.00;;;;;;5071379;28;20209;-82
2022/04/11 07:37:43;;;;;;;2.95;1.77;;;7.20;1.00;;;;;;5072710;28;20206;-83
2022/04/11 07:40:11;;;;;;;5.50;2.60;;;7.30;1.00;;;;;;5066433;28;20229;-82
2022/04/11 07:42:38;;;;;;;2.55;2.17;;;7.30;1.00;;;;;;5061597;28;20255;-82
2022/04/11 07:45:07;;;;;;;1.83;1.65;;;7.20;1.00;;;;;;5061817;28;20213;-82
2022/04/11 07:47:34;;;;;;;2.28;2.08;;;7.30;1.00;;;;;;5060335;28;20676;-83
2022/04/11 07:50:00;;;;;;;3.08;1.95;;;7.50;1.00;;;;;;5060970;28;20277;-82
2022/04/11 07:52:27;;;;;;;6.82;2.03;;;7.60;1.00;;;;;;5060455;28;20206;-83
2022/04/11 07:54:53;;;;;;;3.42;1.95;;;7.60;1.00;;;;;;5060595;28;20232;-83
2022/04/11 07:57:21;;;;;;;2.40;1.90;;;7.60;1.00;;;;;;5060219;28;20210;-83
2022/04/11 07:59:47;;;;;;;8.40;1.90;;;7.70;1.00;;;;;;5059434;28;20320;-83
2022/04/11 08:02:23;;;;;;;2.80;1.75;;;7.70;1.00;;;;;;5061061;28;20796;-83
2022/04/11 08:04:49;;;;;;;4.80;2.83;;;7.80;1.00;;;;;;5060231;28;20191;-82
2022/04/11 08:07:16;;;;;;;3.45;1.80;;;8.00;1.00;;;;;;5058974;28;20452;-83
2022/04/11 08:09:42;;;;;;;2.88;1.60;;;7.90;1.00;;;;;;5057024;28;20257;-82
2022/04/11 08:12:10;;;;;;;2.40;1.52;;;8.00;1.00;;;;;;5058681;28;20255;-83
2022/04/11 08:14:37;;;;;;;3.70;1.73;;;8.00;1.00;;;;;;5058321;28;20206;-83
2022/04/11 08:17:04;;;;;;;4.70;1.70;;;7.90;1.00;;;;;;5057917;28;20254;-83
2022/04/11 08:19:32;;;;;;;2.85;1.40;;;7.90;1.00;;;;;;5056905;28;20233;-82
2022/04/11 08:21:59;;;;;;;2.78;1.70;;;8.00;1.00;;;;;;5061467;28;20203;-82
2022/04/11 08:24:25;;;;;;;3.87;1.90;;;8.20;1.00;;;;;;5065859;28;20193;-82
2022/04/11 08:26:52;;;;;;;5.67;1.87;;;8.30;1.00;;;;;;5066559;28;20443;-83
2022/04/11 08:29:18;;;;;;;2.08;1.75;;;8.30;1.00;;;;;;5066813;28;20492;-82
2022/04/11 08:31:45;;;;;;;2.77;1.50;;;8.30;1.00;;;;;;5062937;28;20248;-83
2022/04/11 08:34:12;;;;;;;13.23;1.80;;;8.40;1.00;;;;;;5063420;28;20456;-83
2022/04/11 08:36:40;;;;;;;1.60;1.50;;;8.40;1.00;;;;;;5066883;28;20499;-83
2022/04/11 08:39:06;;;;;;;4.00;2.43;;;8.30;1.00;;;;;;5066464;28;20441;-83
2022/04/11 08:41:34;;;;;;;2.60;1.80;;;8.50;1.00;;;;;;5065266;28;20486;-82
2022/04/11 08:44:02;;;;;;;2.03;1.70;;;8.70;1.00;;;;;;5065985;28;20445;-82
2022/04/11 08:46:30;;;;;;;3.00;1.80;;;8.60;99.90;;;;;;5064504;28;20979;-82
2022/04/11 08:48:57;;;;;;;1.50;1.40;;;8.80;1.00;;;;;;5065865;28;20483;-82
2022/04/11 08:51:23;;;;;;;1.93;1.20;;;8.70;99.90;;;;;;5063451;28;20959;-82
2022/04/11 08:53:52;;;;;;;1.70;1.20;;;8.80;99.90;;;;;;5064287;28;20446;-82
2022/04/11 08:56:19;;;;;;;1.60;1.50;;;8.80;99.90;;;;;;5064478;28;20477;-83
2022/04/11 08:58:45;;;;;;;2.60;1.30;;;8.90;99.90;;;;;;5063843;28;20941;-81
2022/04/11 09:01:12;;;;;;;1.23;1.13;;;8.90;99.90;;;;;;5062727;28;20467;-82
2022/04/11 09:03:39;;;;;;;2.70;1.60;;;8.80;99.90;;;;;;5063773;28;20428;-82
2022/04/11 09:06:08;;;;;;;1.30;1.20;;;8.90;99.90;;;;;;5066164;28;20420;-82
2022/04/11 09:08:40;;;;;;;1.53;1.07;;;9.00;99.90;;;;;;5071355;28;20518;-82
2022/04/11 09:11:09;;;;;;;1.40;1.10;;;9.00;1.00;;;;;;5071898;28;20473;-82
2022/04/11 09:13:48;;;;;;;1.30;1.20;;;8.70;99.90;;;;;;5071911;28;20444;-82
2022/04/11 09:16:14;;;;;;;2.83;1.47;;;9.00;99.90;;;;;;5066262;28;20433;-82
2022/04/11 09:18:46;;;;;;;1.53;1.30;;;9.20;99.90;;;;;;5065518;28;20420;-82
2022/04/11 09:21:13;;;;;;;2.80;1.50;;;9.20;99.90;;;;;;5065330;28;20976;-82
2022/04/11 09:23:40;;;;;;;1.60;1.50;;;9.30;99.90;;;;;;5060536;28;20430;-83
2022/04/11 09:26:20;;;;;;;1.33;1.23;;;9.30;99.90;;;;;;5058717;28;20486;-82
2022/04/11 09:29:00;;;;;;;3.20;1.50;;;9.40;99.90;;;;;;5058693;28;20465;-83
2022/04/11 09:31:27;;;;;;;1.50;1.40;;;9.40;99.90;;;;;;5058969;28;20979;-83
2022/04/11 09:33:53;;;;;;;2.00;1.80;;;9.50;99.90;;;;;;5060353;28;20454;-83
2022/04/11 09:36:21;;;;;;;2.03;1.40;;;9.40;99.90;;;;;;5060920;28;20481;-82
2022/04/11 09:38:57;;;;;;;2.33;2.00;;;9.40;99.90;;;;;;5060500;28;20424;-83
2022/04/11 09:41:29;;;;;;;1.63;1.47;;;9.60;99.90;;;;;;5061525;28;20425;-83
2022/04/11 09:43:56;;;;;;;2.30;1.20;;;9.50;99.90;;;;;;5064842;28;20426;-82
2022/04/11 09:46:23;;;;;;;2.50;1.60;;;9.60;99.90;;;;;;5067628;28;20445;-82
2022/04/11 09:48:52;;;;;;;1.30;1.20;;;9.70;99.90;;;;;;5068757;28;20455;-82
2022/04/11 09:51:18;;;;;;;2.73;1.47;;;9.80;99.90;;;;;;5066412;28;20462;-82
2022/04/11 09:53:46;;;;;;;1.63;1.53;;;9.90;99.90;;;;;;5061637;28;20416;-83
2022/04/11 09:56:13;;;;;;;2.77;1.50;;;9.90;99.90;;;;;;5060863;28;20526;-83
2022/04/11 09:58:42;;;;;;;1.67;1.47;;;10.10;99.90;;;;;;5063811;28;20435;-83
2022/04/11 10:01:09;;;;;;;2.90;1.60;;;10.10;99.90;;;;;;5065570;28;20485;-84
2022/04/11 10:03:37;;;;;;;2.30;1.67;;;10.10;99.90;;;;;;5065030;28;20445;-83
2022/04/11 10:06:05;;;;;;;4.53;1.77;;;10.50;1.00;;;;;;5067815;28;20503;-85
2022/04/11 10:08:33;;;;;;;4.73;1.60;;;10.20;99.90;;;;;;5066772;28;20477;-84
2022/04/11 10:11:01;;;;;;;4.13;2.77;;;10.30;99.90;;;;;;5066915;28;20969;-85
2022/04/11 10:13:29;;;;;;;2.17;1.90;;;10.60;99.90;;;;;;5071964;28;20960;-84
2022/04/11 10:15:57;;;;;;;3.43;1.87;;;10.70;99.90;;;;;;5065126;28;20463;-85
2022/04/11 10:18:26;;;;;;;2.03;1.80;;;10.90;99.90;;;;;;5065612;28;20456;-85
2022/04/11 10:20:57;;;;;;;3.63;1.77;;;11.00;99.90;;;;;;5065362;28;20474;-85
2022/04/11 10:23:30;;;;;;;1.70;1.60;;;10.70;99.90;;;;;;5064932;28;20776;-84
2022/04/11 10:25:59;;;;;;;3.30;2.00;;;10.40;99.90;;;;;;5064942;28;20404;-84
2022/04/11 10:28:27;;;;;;;1.97;1.87;;;10.60;99.90;;;;;;5064454;28;20948;-84
2022/04/11 10:31:07;;;;;;;2.23;1.63;;;10.50;99.90;;;;;;5063038;28;20558;-84
2022/04/11 10:33:42;;;;;;;1.70;1.60;;;10.60;99.90;;;;;;5064170;28;20533;-84
2022/04/11 10:36:27;;;;;;;4.70;2.00;;;10.60;99.90;;;;;;5063810;28;20452;-84
2022/04/11 10:39:23;;;;;;;3.10;1.27;;;10.40;99.90;;;;;;5063745;28;20472;-85
2022/04/11 10:42:09;;;;;;;1.73;1.60;;;10.10;99.90;;;;;;5064952;28;20430;-85
2022/04/11 10:44:37;;;;;;;3.03;2.60;;;10.00;99.90;;;;;;5065229;28;20462;-85
2022/04/11 10:47:29;;;;;;;5.10;3.10;;;10.10;99.90;;;;;;5068893;28;20779;-84
2022/04/11 10:50:25;;;;;;;3.33;3.03;;;10.30;99.90;;;;;;5062571;28;20511;-84
2022/04/11 10:53:12;;;;;;;2.23;1.40;;;10.40;99.90;;;;;;5075442;28;20466;-84
2022/04/11 10:55:56;;;;;;;2.20;2.00;;;10.30;99.90;;;;;;5074090;28;20426;-84
2022/04/11 10:58:24;;;;;;;2.60;1.40;;;10.20;99.90;;;;;;5071078;28;20446;-85
2022/04/11 11:00:52;;;;;;;2.17;1.97;;;10.00;99.90;;;;;;5065886;28;20479;-85
2022/04/11 11:03:20;;;;;;;4.43;2.00;;;10.00;99.90;;;;;;5066021;28;20445;-85
2022/04/11 11:05:49;;;;;;;1.83;1.70;;;10.10;99.90;;;;;;5064734;28;20454;-85
2022/04/11 11:08:33;;;;;;;2.40;1.70;;;10.20;99.90;;;;;;5064307;28;20449;-84
2022/04/11 11:11:01;;;;;;;3.17;2.23;;;10.20;99.90;;;;;;5064392;28;20552;-85
2022/04/11 11:13:30;;;;;;;2.37;2.17;;;10.30;99.90;;;;;;5066197;28;20468;-85
2022/04/11 11:15:58;;;;;;;1.93;1.70;;;10.30;99.90;;;;;;5068834;28;20420;-84
2022/04/11 11:18:27;;;;;;;2.27;1.80;;;10.50;99.90;;;;;;5070644;28;20412;-84
2022/04/11 11:20:56;;;;;;;2.10;1.63;;;10.80;99.90;;;;;;5070574;28;20491;-84
2022/04/11 11:23:30;;;;;;;2.27;1.50;;;10.90;99.90;;;;;;5069530;28;20472;-84
2022/04/11 11:26:08;;;;;;;3.30;2.00;;;10.90;99.90;;;;;;5068000;28;20773;-84
2022/04/11 11:28:34;;;;;;;2.80;1.60;;;11.20;99.90;;;;;;5068402;28;20442;-84
2022/04/11 11:31:01;;;;;;;1.87;1.60;;;11.40;99.90;;;;;;5069426;28;20470;-85
2022/04/11 11:33:29;;;;;;;2.17;1.97;;;11.50;99.90;;;;;;5070270;28;20441;-85
2022/04/11 11:35:56;;;;;;;1.73;1.63;;;11.20;1.00;;;;;;5064765;28;20924;-84
2022/04/11 11:38:25;;;;;;;3.10;2.37;;;11.40;99.90;;;;;;5061372;28;20445;-82
2022/04/11 11:40:53;;;;;;;2.33;1.67;;;11.40;99.90;;;;;;5059511;28;20527;-83
2022/04/11 11:43:20;;;;;;;2.40;2.10;;;11.30;99.90;;;;;;5059708;28;20442;-83
2022/04/11 11:45:47;;;;;;;2.70;1.90;;;11.30;99.90;;;;;;5061313;28;20477;-85
2022/04/11 11:48:25;;;;;;;6.00;2.17;;;11.10;99.90;;;;;;5065657;28;20527;-85
2022/04/11 11:50:56;;;;;;;3.23;1.90;;;11.10;99.90;;;;;;5066329;28;20556;-86
2022/04/11 11:53:24;;;;;;;2.03;1.80;;;11.20;99.90;;;;;;5065493;28;20456;-84
2022/04/11 11:55:55;;;;;;;2.13;1.93;;;11.40;99.90;;;;;;5065976;28;20446;-84
2022/04/11 11:58:22;;;;;;;1.80;1.70;;;;;;;;;;5071130;28;20487;-84
2022/04/11 12:00:49;;;;;;;2.43;1.63;;;11.70;99.90;;;;;;5067308;28;20539;-83
2022/04/11 12:06:04;;;;;;;7.70;2.47;;;11.60;99.90;;;;;;5064715;28;20469;-84
2022/04/11 12:08:31;;;;;;;2.57;2.00;;;11.60;99.90;;;;;;5065977;28;20446;-84
2022/04/11 12:10:59;;;;;;;6.20;2.37;;;11.70;99.90;;;;;;5066924;28;20590;-84
2022/04/11 12:13:29;;;;;;;3.70;2.10;;;11.60;99.90;;;;;;5068924;28;20449;-83
2022/04/11 12:16:07;;;;;;;3.03;2.17;;;11.40;99.90;;;;;;5073402;28;20497;-84
2022/04/11 12:18:50;;;;;;;3.50;2.77;;;11.50;99.90;;;;;;5074382;28;20418;-84
2022/04/11 12:21:29;;;;;;;3.33;1.83;;;11.50;99.90;;;;;;5073692;28;20453;-83
2022/04/11 12:23:56;;;;;;;5.63;1.80;;;11.50;99.90;;;;;;5074769;28;20441;-84
2022/04/11 12:26:27;;;;;;;5.13;2.43;;;11.30;99.90;;;;;;5068884;28;20450;-84
2022/04/11 12:28:54;;;;;;;4.17;2.27;;;11.20;99.90;;;;;;5065791;28;20446;-84
2022/04/11 12:31:22;;;;;;;6.53;3.47;;;11.20;99.90;;;;;;5066198;28;20479;-84
2022/04/11 12:33:49;;;;;;;2.93;2.27;;;11.20;99.90;;;;;;5067401;28;20430;-84
2022/04/11 12:36:19;;;;;;;2.57;2.30;;;11.20;99.90;;;;;;5067599;28;20472;-84
2022/04/11 12:38:51;;;;;;;3.37;2.10;;;11.20;99.90;;;;;;5066504;28;20485;-84
2022/04/11 12:41:29;;;;;;;2.70;2.10;;;11.40;99.90;;;;;;5066000;28;20466;-84
2022/04/11 12:44:03;;;;;;;4.23;2.57;;;11.30;99.90;;;;;;5066171;28;20432;-79
2022/04/11 12:46:30;;;;;;;2.87;2.50;;;11.40;99.90;;;;;;5059692;28;20455;-79
2022/04/11 12:48:57;;;;;;;3.10;2.80;;;11.50;1.00;;;;;;5063114;28;20450;-79
2022/04/11 12:51:24;;;;;;;2.57;1.63;;;11.80;99.90;;;;;;5064153;28;20441;-79
2022/04/11 12:53:52;;;;;;;2.07;1.87;;;12.00;99.90;;;;;;5068169;28;20461;-79
2022/04/11 12:56:19;;;;;;;2.83;1.97;;;12.20;1.00;;;;;;5075008;28;20430;-82
2022/04/11 12:58:46;;;;;;;2.57;1.90;;;12.00;99.90;;;;;;5072622;28;20445;-82
2022/04/11 13:01:12;;;;;;;4.53;2.00;;;12.40;99.90;;;;;;5074984;28;20500;-82
2022/04/11 13:03:39;;;;;;;2.07;1.97;;;12.70;99.90;;;;;;5077337;28;20435;-81
2022/04/11 13:06:06;;;;;;;2.60;2.27;;;12.20;1.00;;;;;;5077531;28;20429;-80
2022/04/11 13:08:33;;;;;;;4.90;2.23;;;12.40;99.90;;;;;;5068856;28;20452;-82
2022/04/11 13:11:01;;;;;;;2.50;1.87;;;12.40;99.90;;;;;;5063510;28;20501;-83
2022/04/11 13:13:28;;;;;;;4.90;1.97;;;12.50;1.00;;;;;;5065385;28;20454;-84
2022/04/11 13:18:38;;;;;;;3.53;2.33;;;11.90;99.90;;;;;;5061366;28;20464;-82
2022/04/11 13:21:05;;;;;;;4.70;2.27;;;11.60;99.90;;;;;;5060963;28;20462;-81